Packwood, Washington
Current Conditions -  °F | °C
As of 8:15 PM on Wednesday 28 Jan 2015 (Local Time) from KPLU Reporting Station
Drizzle Drizzle  
Wind Chill: 39°   Ceiling: Unl
Heat Index: 39°   Visibility: 3mi
Dew Point: 39°   Wind: 0mph
Humidity: 100%   Direction: NA
Pressure: 30.34"   Gusts: NA
Location:  46.61°N, 121.67°W
Report Text: KPLU 290415Z AUTO 00000KT 3SM -DZ CLR 04/04 A3034 RMK AO2
Loading
Personal Weather Stations






























Interactive Weather Map New forecast layout! Learn more

10-Day Weather Forecast

Advertisements
Track Severe Weather on mobile